Time;durP1;ratioP1;P1;durP2;ratioP2;P2;SDS_P1;SDS_P2;PMS_P1;PMS_P2;Temp;Humidity;BMP_temperature;BMP_pressure;BME280_temperature;BME280_humidity;BME280_pressure;Samples;Min_cycle;Max_cycle;Signal;HPM_P1;HPM_P2
2021/09/07 00:00:50;;;;;;;;;;;;;;;14.87;100.00;101602.59;5049430;28;19924;-63
2021/09/07 00:03:16;;;;;;;;;;;;;;;14.87;100.00;101608.94;5051881;28;19935;-63
2021/09/07 00:05:43;;;;;;;;;;;;;;;14.87;100.00;101613.53;5054101;28;20468;-63
2021/09/07 00:08:10;;;;;;;;;;;;;;;14.86;100.00;101604.47;5053906;28;20315;-63
2021/09/07 00:10:36;;;;;;;;;;;;;;;14.85;100.00;101605.47;5054552;28;20002;-63
2021/09/07 00:13:03;;;;;;;;;;;;;;;14.83;100.00;101596.56;5054275;28;19932;-63
2021/09/07 00:15:30;;;;;;;;;;;;;;;14.83;100.00;101596.56;5054390;28;20027;-63
2021/09/07 00:17:56;;;;;;;;;;;;;;;14.82;100.00;101589.34;5053930;28;20391;-63
2021/09/07 00:20:23;;;;;;;;;;;;;;;14.83;100.00;101595.66;5053033;28;19931;-63
2021/09/07 00:22:51;;;;;;;;;;;;;;;14.81;100.00;101584.00;5053917;28;20293;-63
2021/09/07 00:25:17;;;;;;;;;;;;;;;14.80;100.00;101593.22;5053663;28;20388;-63
2021/09/07 00:27:43;;;;;;;;;;;;;;;14.80;100.00;101591.31;5053677;28;20019;-63
2021/09/07 00:30:10;;;;;;;;;;;;;;;14.78;100.00;101593.34;5053759;28;20024;-63
2021/09/07 00:32:36;;;;;;;;;;;;;;;14.77;100.00;101586.13;5054129;28;20307;-63
2021/09/07 00:35:03;;;;;;;;;;;;;;;14.75;100.00;101579.06;5053878;28;20156;-63
2021/09/07 00:37:29;;;;;;;;;;;;;;;14.73;100.00;101579.19;5053677;28;19924;-63
2021/09/07 00:39:57;;;;;;;;;;;;;;;14.74;100.00;101575.47;5054001;28;19931;-64
2021/09/07 00:42:23;;;;;;;;;;;;;;;14.74;100.00;101575.47;5053607;28;19925;-63
2021/09/07 00:44:49;;;;;;;;;;;;;;;14.72;100.00;101574.72;5053470;28;19931;-63
2021/09/07 00:47:16;;;;;;;;;;;;;;;14.69;100.00;101583.19;5052904;28;19925;-63
2021/09/07 00:49:42;;;;;;;;;;;;;;;14.65;100.00;101576.25;5053860;28;20008;-64
2021/09/07 00:52:08;;;;;;;;;;;;;;;14.59;100.00;101577.63;5053594;28;20023;-63
2021/09/07 00:54:35;;;;;;;;;;;;;;;14.53;100.00;101576.25;5053161;28;20024;-64
2021/09/07 00:57:04;;;;;;;;;;;;;;;14.47;100.00;101574.06;5053285;28;19932;-63
2021/09/07 00:59:31;;;;;;;;;;;;;;;14.38;100.00;101570.22;5053279;28;19935;-63
2021/09/07 01:01:58;;;;;;;;;;;;;;;14.31;100.00;101571.75;5053336;28;20020;-64
2021/09/07 01:04:24;;;;;;;;;;;;;;;14.23;100.00;101572.38;5053351;28;20426;-63
2021/09/07 01:06:51;;;;;;;;;;;;;;;14.17;100.00;101572.88;5051637;28;19925;-63
2021/09/07 01:09:22;;;;;;;;;;;;;;;14.12;100.00;101575.13;5053297;28;19925;-63
2021/09/07 01:11:49;;;;;;;;;;;;;;;14.08;100.00;101581.84;5053251;28;20397;-64
2021/09/07 01:14:18;;;;;;;;;;;;;;;14.04;100.00;101583.09;5052937;28;19932;-64
2021/09/07 01:16:45;;;;;;;;;;;;;;;14.00;100.00;101582.50;5052577;28;19925;-64
2021/09/07 01:19:12;;;;;;;;;;;;;;;13.97;100.00;101587.34;5052764;28;20350;-63
2021/09/07 01:21:39;;;;;;;;;;;;;;;13.95;100.00;101589.31;5053352;28;19925;-63
2021/09/07 01:24:05;;;;;;;;;;;;;;;13.93;100.00;101588.56;5065823;28;19975;-63
2021/09/07 01:26:33;;;;;;;;;;;;;;;13.89;100.00;101587.94;5072815;28;19994;-63
2021/09/07 01:28:59;;;;;;;;;;;;;;;13.87;100.00;101587.22;5072450;28;19924;-63
2021/09/07 01:31:27;;;;;;;;;;;;;;;13.79;100.00;101581.50;5072803;28;19931;-63
2021/09/07 01:33:54;;;;;;;;;;;;;;;13.75;100.00;101588.19;5072946;28;19929;-63
2021/09/07 01:36:22;;;;;;;;;;;;;;;13.71;100.00;101584.88;5071966;28;20018;-63
2021/09/07 01:38:48;;;;;;;;;;;;;;;13.65;100.00;101586.22;5072655;28;19978;-63
2021/09/07 01:41:14;;;;;;;;;;;;;;;13.60;100.00;101585.72;5054443;28;19928;-63
2021/09/07 01:43:47;;;;;;;;;;;;;;;13.58;100.00;101582.25;5072567;28;19925;-63
2021/09/07 01:46:14;;;;;;;;;;;;;;;13.54;100.00;101588.97;5072415;28;19924;-63
2021/09/07 01:48:40;;;;;;;;;;;;;;;13.51;100.00;101584.63;5072012;28;19931;-63
2021/09/07 01:51:06;;;;;;;;;;;;;;;13.52;100.00;101583.63;5072491;28;20019;-63
2021/09/07 01:53:32;;;;;;;;;;;;;;;13.49;100.00;101588.44;5054246;28;19935;-63
2021/09/07 01:55:59;;;;;;;;;;;;;;;13.47;100.00;101588.59;5072283;28;19939;-63
2021/09/07 01:58:25;;;;;;;;;;;;;;;13.45;100.00;101587.81;5071955;28;20348;-64
2021/09/07 02:00:53;;;;;;;;;;;;;;;13.43;100.00;101594.38;5072129;28;20024;-63
2021/09/07 02:03:20;;;;;;;;;;;;;;;13.38;100.00;101595.63;5072331;28;20061;-63
2021/09/07 02:05:46;;;;;;;;;;;;;;;13.32;100.00;101603.38;5071887;28;20023;-63
2021/09/07 02:08:13;;;;;;;;;;;;;;;13.26;100.00;101604.75;5071799;28;19925;-63
2021/09/07 02:10:39;;;;;;;;;;;;;;;13.22;100.00;101606.84;5072115;28;19931;-63
2021/09/07 02:13:06;;;;;;;;;;;;;;;13.14;100.00;101606.56;5072127;28;19967;-63
2021/09/07 02:15:34;;;;;;;;;;;;;;;13.08;100.00;101601.63;5071857;28;19931;-63
2021/09/07 02:18:03;;;;;;;;;;;;;;;12.98;100.00;101595.16;5071541;28;20023;-63
2021/09/07 02:20:29;;;;;;;;;;;;;;;12.90;100.00;101593.88;5072151;28;19925;-63
2021/09/07 02:22:57;;;;;;;;;;;;;;;12.81;100.00;101597.28;5071950;28;20383;-63
2021/09/07 02:25:23;;;;;;;;;;;;;;;12.71;100.00;101599.88;5071750;28;19931;-63
2021/09/07 02:27:50;;;;;;;;;;;;;;;12.64;100.00;101601.34;5070914;28;20392;-66
2021/09/07 02:30:16;;;;;;;;;;;;;;;12.56;100.00;101606.50;5071461;28;20307;-65
2021/09/07 02:32:43;;;;;;;;;;;;;;;12.49;100.00;101602.50;5071760;28;19964;-63
2021/09/07 02:35:14;;;;;;;;;;;;;;;12.41;100.00;101599.47;5053283;28;20304;-63
2021/09/07 02:37:42;;;;;;;;;;;;;;;12.31;100.00;101597.44;5071610;28;19928;-65
2021/09/07 02:40:09;;;;;;;;;;;;;;;12.24;100.00;101601.63;5072009;28;20019;-66
2021/09/07 02:42:35;;;;;;;;;;;;;;;12.18;100.00;101610.22;5071506;28;20391;-66
2021/09/07 02:45:01;;;;;;;;;;;;;;;12.13;100.00;101604.25;5071724;28;20388;-63
2021/09/07 02:47:29;;;;;;;;;;;;;;;12.07;100.00;101605.59;5070972;28;19936;-63
2021/09/07 02:49:56;;;;;;;;;;;;;;;12.00;100.00;101602.44;5071646;28;20003;-63
2021/09/07 02:52:23;;;;;;;;;;;;;;;11.96;100.00;101603.66;5070964;28;19956;-63
2021/09/07 02:54:50;;;;;;;;;;;;;;;11.92;100.00;101601.22;5071272;28;20319;-63
2021/09/07 02:57:18;;;;;;;;;;;;;;;11.87;100.00;101599.72;5071022;28;19925;-63
2021/09/07 02:59:44;;;;;;;;;;;;;;;11.84;100.00;101604.53;5071150;28;19924;-63
2021/09/07 03:02:11;;;;;;;;;;;;;;;11.80;100.00;101594.81;5071257;28;19932;-63
2021/09/07 03:04:38;;;;;;;;;;;;;;;11.76;100.00;101596.03;5070140;28;19928;-63
2021/09/07 03:07:05;;;;;;;;;;;;;;;11.72;100.00;101590.81;5070804;28;19931;-63
2021/09/07 03:09:33;;;;;;;;;;;;;;;11.65;100.00;101594.09;5071255;28;19965;-63
2021/09/07 03:11:59;;;;;;;;;;;;;;;11.62;100.00;101594.31;5070807;28;19978;-64
2021/09/07 03:14:26;;;;;;;;;;;;;;;11.58;100.00;101587.38;5071301;28;20477;-63
2021/09/07 03:16:53;;;;;;;;;;;;;;;11.54;100.00;101584.00;5070687;28;20023;-63
2021/09/07 03:19:20;;;;;;;;;;;;;;;11.49;100.00;101583.44;5070955;28;19935;-63
2021/09/07 03:21:48;;;;;;;;;;;;;;;11.45;100.00;101590.97;5070636;28;19924;-63
2021/09/07 03:24:14;;;;;;;;;;;;;;;11.43;100.00;101586.63;5070968;28;20419;-63
2021/09/07 03:26:42;;;;;;;;;;;;;;;11.39;100.00;101589.53;5070937;28;20380;-63
2021/09/07 03:29:09;;;;;;;;;;;;;;;11.36;100.00;101588.91;5070478;28;19924;-64
2021/09/07 03:31:37;;;;;;;;;;;;;;;11.32;100.00;101588.25;5071142;28;19924;-63
2021/09/07 03:34:04;;;;;;;;;;;;;;;11.27;100.00;101592.28;5071167;28;20441;-63
2021/09/07 03:36:32;;;;;;;;;;;;;;;11.22;100.00;101595.28;5070405;28;19929;-63
2021/09/07 03:38:58;;;;;;;;;;;;;;;11.18;100.00;101591.06;5073408;28;20015;-63
2021/09/07 03:41:25;;;;;;;;;;;;;;;11.11;100.00;101593.34;5074638;28;19963;-63
2021/09/07 03:43:52;;;;;;;;;;;;;;;11.11;100.00;101593.34;5075077;28;19928;-66
2021/09/07 03:46:21;;;;;;;;;;;;;;;11.07;100.00;101589.09;5074660;28;19925;-63
2021/09/07 03:48:47;;;;;;;;;;;;;;;11.07;100.00;101596.38;5074354;28;20309;-63
2021/09/07 03:51:13;;;;;;;;;;;;;;;11.04;100.00;101598.31;5074955;28;19925;-63
2021/09/07 03:53:40;;;;;;;;;;;;;;;11.00;100.00;101598.66;5074729;28;19925;-66
2021/09/07 03:56:07;;;;;;;;;;;;;;;10.99;100.00;101603.19;5074683;28;19978;-63
2021/09/07 03:58:34;;;;;;;;;;;;;;;11.01;100.00;101608.53;5074458;28;19924;-63
2021/09/07 04:01:04;;;;;;;;;;;;;;;10.96;100.00;101610.72;5056180;28;22726;-63
2021/09/07 04:03:31;;;;;;;;;;;;;;;10.92;100.00;101623.63;5056478;28;20387;-63
2021/09/07 04:05:57;;;;;;;;;;;;;;;10.89;100.00;101619.28;5073910;28;19928;-66
2021/09/07 04:08:24;;;;;;;;;;;;;;;10.84;100.00;101618.72;5074164;28;19924;-66
2021/09/07 04:10:50;;;;;;;;;;;;;;;10.81;100.00;101623.47;5074357;28;20388;-65
2021/09/07 04:13:17;;;;;;;;;;;;;;;10.79;100.00;101620.88;5074282;28;19925;-66
2021/09/07 04:15:44;;;;;;;;;;;;;;;10.75;100.00;101630.19;5074120;28;19928;-66
2021/09/07 04:18:11;;;;;;;;;;;;;;;10.74;100.00;101625.75;5073773;28;19924;-66
2021/09/07 04:20:38;;;;;;;;;;;;;;;10.68;100.00;101629.75;5074244;28;19930;-66
2021/09/07 04:23:05;;;;;;;;;;;;;;;10.64;100.00;101632.78;5073731;28;20449;-66
2021/09/07 04:25:32;;;;;;;;;;;;;;;10.63;100.00;101634.59;5073761;28;19924;-63
2021/09/07 04:27:58;;;;;;;;;;;;;;;10.62;100.00;101629.28;5073823;28;19925;-63
2021/09/07 04:30:24;;;;;;;;;;;;;;;10.61;100.00;101636.56;5073844;28;19972;-63
2021/09/07 04:32:51;;;;;;;;;;;;;;;10.61;100.00;101642.00;5073915;28;19924;-63
2021/09/07 04:35:18;;;;;;;;;;;;;;;10.64;100.00;101638.22;5073384;28;19964;-63
2021/09/07 04:37:44;;;;;;;;;;;;;;;10.62;100.00;101640.16;5073629;28;19970;-63
2021/09/07 04:40:11;;;;;;;;;;;;;;;10.64;100.00;101635.50;5073631;28;19962;-63
2021/09/07 04:42:38;;;;;;;;;;;;;;;10.68;100.00;101639.75;5071137;28;20387;-63
2021/09/07 04:45:05;;;;;;;;;;;;;;;10.68;100.00;101637.88;5073439;28;19951;-63
2021/09/07 04:47:32;;;;;;;;;;;;;;;10.70;100.00;101637.78;5073047;28;19924;-63
2021/09/07 04:49:58;;;;;;;;;;;;;;;10.71;100.00;101642.25;5072496;28;19968;-65
2021/09/07 04:52:26;;;;;;;;;;;;;;;10.78;100.00;101640.00;5073658;28;20373;-66
2021/09/07 04:54:52;;;;;;;;;;;;;;;10.82;100.00;101653.28;5073121;28;19924;-63
2021/09/07 04:57:18;;;;;;;;;;;;;;;10.91;100.00;101653.63;5068538;28;20343;-63
2021/09/07 04:59:45;;;;;;;;;;;;;;;10.96;100.00;101667.75;5067180;28;19966;-63
2021/09/07 05:02:11;;;;;;;;;;;;;;;11.07;100.00;101664.31;5053295;28;19971;-63
2021/09/07 05:04:37;;;;;;;;;;;;;;;11.13;100.00;101666.59;5053508;28;19979;-66
2021/09/07 05:07:04;;;;;;;;;;;;;;;11.23;100.00;101654.97;5054548;28;19935;-65
2021/09/07 05:09:31;;;;;;;;;;;;;;;11.31;100.00;101656.31;5070830;28;20019;-66
2021/09/07 05:11:58;;;;;;;;;;;;;;;11.43;100.00;101660.03;5063507;28;20366;-66
2021/09/07 05:14:24;;;;;;;;;;;;;;;11.53;100.00;101664.69;5072743;28;19954;-66
2021/09/07 05:16:50;;;;;;;;;;;;;;;11.65;100.00;101662.97;5068051;28;19924;-66
2021/09/07 05:19:17;;;;;;;;;;;;;;;11.76;100.00;101664.91;5066786;28;19963;-66
2021/09/07 05:21:43;;;;;;;;;;;;;;;11.92;100.00;101661.06;5070798;28;19960;-66
2021/09/07 05:24:10;;;;;;;;;;;;;;;12.18;100.00;101667.38;5068636;28;19952;-66
2021/09/07 05:26:37;;;;;;;;;;;;;;;12.51;100.00;101664.03;5072247;28;19983;-66
2021/09/07 05:29:04;;;;;;;;;;;;;;;12.89;100.00;101663.00;5071487;28;20368;-65
2021/09/07 05:31:30;;;;;;;;;;;;;;;13.36;100.00;101656.72;5072401;28;20054;-63
2021/09/07 05:33:56;;;;;;;;;;;;;;;13.73;100.00;101665.63;5059312;28;19971;-63
2021/09/07 05:36:23;;;;;;;;;;;;;;;14.10;100.00;101659.03;5055023;28;20388;-63
2021/09/07 05:38:49;;;;;;;;;;;;;;;14.44;100.00;101658.97;5063143;28;19976;-64
2021/09/07 05:41:15;;;;;;;;;;;;;;;14.78;100.00;101658.03;5056136;28;19953;-64
2021/09/07 05:43:43;;;;;;;;;;;;;;;15.06;100.00;101651.97;5053668;28;19925;-64
2021/09/07 05:46:09;;;;;;;;;;;;;;;15.29;100.00;101640.91;5053649;28;20020;-64
2021/09/07 05:48:35;;;;;;;;;;;;;;;15.55;100.00;101637.75;5053385;28;19953;-64
2021/09/07 05:51:02;;;;;;;;;;;;;;;15.90;100.00;101645.63;5062027;28;20038;-66
2021/09/07 05:53:28;;;;;;;;;;;;;;;16.11;100.00;101641.09;5054002;28;19929;-63
2021/09/07 05:55:55;;;;;;;;;;;;;;;16.27;100.00;101635.09;5055268;28;19932;-63
2021/09/07 05:58:21;;;;;;;;;;;;;;;16.48;100.00;101637.72;5072250;28;20042;-64
2021/09/07 06:00:49;;;;;;;;;;;;;;;16.63;100.00;101635.44;5069954;28;19925;-63
2021/09/07 06:03:15;;;;;;;;;;;;;;;16.88;100.00;101636.75;5052058;28;19963;-64
2021/09/07 06:05:41;;;;;;;;;;;;;;;16.89;100.00;101641.25;5052920;28;19974;-64
2021/09/07 06:08:07;;;;;;;;;;;;;;;16.99;100.00;101641.25;5069834;28;19960;-63
2021/09/07 06:10:34;;;;;;;;;;;;;;;16.95;100.00;101643.41;5055868;28;19925;-63
2021/09/07 06:13:00;;;;;;;;;;;;;;;17.16;100.00;101646.00;5057350;28;20698;-64
2021/09/07 06:15:27;;;;;;;;;;;;;;;17.46;100.00;101645.97;5066227;28;20319;-64
2021/09/07 06:17:54;;;;;;;;;;;;;;;17.51;100.00;101646.41;5071518;28;20015;-63
2021/09/07 06:20:22;;;;;;;;;;;;;;;17.66;100.00;101638.56;5064899;28;19964;-64
2021/09/07 06:22:48;;;;;;;;;;;;;;;17.63;100.00;101644.34;5062374;28;19924;-63
2021/09/07 06:25:15;;;;;;;;;;;;;;;17.69;100.00;101644.63;5066699;28;19925;-64
2021/09/07 06:27:41;;;;;;;;;;;;;;;17.86;100.00;101637.47;5051484;28;19950;-64
2021/09/07 06:30:08;;;;;;;;;;;;;;;18.38;100.00;101638.84;5051217;28;19979;-66
2021/09/07 06:32:34;;;;;;;;;;;;;;;18.66;100.00;101641.56;5051495;28;20023;-64
2021/09/07 06:35:02;;;;;;;;;;;;;;;18.81;100.00;101636.38;5051438;28;19971;-64
2021/09/07 06:37:28;;;;;;;;;;;;;;;19.24;100.00;101634.72;5051462;28;19925;-64
2021/09/07 06:39:55;;;;;;;;;;;;;;;19.79;100.00;101633.56;5051487;28;20249;-64
2021/09/07 06:42:21;;;;;;;;;;;;;;;20.11;100.00;101632.03;5051666;28;19924;-64
2021/09/07 06:44:47;;;;;;;;;;;;;;;20.43;100.00;101627.66;5051337;28;19983;-64
2021/09/07 06:47:13;;;;;;;;;;;;;;;20.53;100.00;101636.63;5051390;28;20020;-64
2021/09/07 06:49:40;;;;;;;;;;;;;;;20.61;100.00;101637.69;5051478;28;19960;-64
2021/09/07 06:52:07;;;;;;;;;;;;;;;20.14;100.00;101637.19;5051332;28;19987;-64
2021/09/07 06:54:34;;;;;;;;;;;;;;;19.92;100.00;101635.03;5051247;28;19963;-64
2021/09/07 06:57:00;;;;;;;;;;;;;;;19.71;100.00;101641.78;5050708;28;19925;-64
2021/09/07 06:59:26;;;;;;;;;;;;;;;19.49;100.00;101641.28;5050005;28;20312;-64
2021/09/07 07:01:53;;;;;;;;;;;;;;;19.27;100.00;101650.03;5051316;28;20009;-64
2021/09/07 07:04:19;;;;;;;;;;;;;;;19.13;100.00;101648.75;5050927;28;19994;-64
2021/09/07 07:06:45;;;;;;;;;;;;;;;19.16;100.00;101654.81;5051151;28;20453;-64
2021/09/07 07:09:13;;;;;;;;;;;;;;;19.19;100.00;101657.22;5050947;28;19956;-64
2021/09/07 07:11:39;;;;;;;;;;;;;;;19.12;100.00;101658.88;5051364;28;20385;-63
2021/09/07 07:14:05;;;;;;;;;;;;;;;19.11;100.00;101651.66;5050645;28;19979;-63
2021/09/07 07:16:32;;;;;;;;;;;;;;;19.10;100.00;101660.06;5050879;28;19965;-63
2021/09/07 07:18:58;;;;;;;;;;;;;;;18.94;100.00;101647.03;5051288;28;19932;-63
2021/09/07 07:21:24;;;;;;;;;;;;;;;18.96;100.00;101658.72;5049249;28;19967;-63
2021/09/07 07:23:50;;;;;;;;;;;;;;;19.02;100.00;101658.09;5068153;28;20348;-63
2021/09/07 07:26:18;;;;;;;;;;;;;;;19.18;100.00;101652.72;5070998;28;19925;-63
2021/09/07 07:28:44;;;;;;;;;;;;;;;19.10;100.00;101655.41;5070903;28;20015;-63
2021/09/07 07:31:11;;;;;;;;;;;;;;;19.21;100.00;101663.44;5071174;28;19924;-63
2021/09/07 07:33:37;;;;;;;;;;;;;;;19.19;100.00;101662.72;5070759;28;19968;-63
2021/09/07 07:36:03;;;;;;;;;;;;;;;19.20;100.00;101660.81;5070547;28;20459;-63
2021/09/07 07:38:30;;;;;;;;;;;;;;;19.10;100.00;101658.16;5070768;28;19932;-63
2021/09/07 07:40:56;;;;;;;;;;;;;;;19.04;100.00;101669.78;5070808;28;19966;-63
2021/09/07 07:43:26;;;;;;;;;;;;;;;19.02;100.00;101669.97;5053068;28;20364;-63
2021/09/07 07:45:52;;;;;;;;;;;;;;;19.07;100.00;101670.34;5070835;28;19978;-73
2021/09/07 07:48:19;;;;;;;;;;;;;;;18.92;100.00;101676.56;5070825;28;20396;-73
2021/09/07 07:50:45;;;;;;;;;;;;;;;18.86;100.00;101675.28;5070812;28;19963;-73
2021/09/07 07:53:11;;;;;;;;;;;;;;;19.03;100.00;101676.34;5070855;28;19924;-73
2021/09/07 07:55:37;;;;;;;;;;;;;;;19.14;100.00;101678.84;5070908;28;19924;-73
2021/09/07 07:58:04;;;;;;;;;;;;;;;19.48;100.00;101680.88;5070310;28;19970;-73
2021/09/07 08:00:31;;;;;;;;;;;;;;;20.01;100.00;101673.47;5070900;28;20007;-73
2021/09/07 08:02:58;;;;;;;;;;;;;;;20.55;100.00;101678.72;5070791;28;19964;-73
2021/09/07 08:05:24;;;;;;;;;;;;;;;21.04;100.00;101683.47;5070879;28;19955;-73
2021/09/07 08:07:50;;;;;;;;;;;;;;;21.60;100.00;101679.22;5070737;28;20022;-73
2021/09/07 08:10:16;;;;;;;;;;;;;;;22.04;100.00;101682.38;5070163;28;19968;-73
2021/09/07 08:12:44;;;;;;;;;;;;;;;22.17;100.00;101681.00;5070744;28;19925;-73
2021/09/07 08:15:10;;;;;;;;;;;;;;;22.60;100.00;101680.66;5070267;28;19986;-73
2021/09/07 08:17:38;;;;;;;;;;;;;;;22.84;100.00;101686.03;5070520;28;19924;-73
2021/09/07 08:20:05;;;;;;;;;;;;;;;23.11;100.00;101680.16;5070557;28;19932;-73
2021/09/07 08:22:31;;;;;;;;;;;;;;;23.38;100.00;101673.19;5052702;28;19924;-73
2021/09/07 08:24:58;;;;;;;;;;;;;;;23.63;100.00;101682.13;5071331;28;19971;-73
2021/09/07 08:27:24;;;;;;;;;;;;;;;23.78;100.00;101681.31;5073587;28;20312;-73
2021/09/07 08:29:50;;;;;;;;;;;;;;;23.97;100.00;101672.47;5074231;28;19994;-73
2021/09/07 08:32:17;;;;;;;;;;;;;;;24.16;100.00;101679.34;5074173;28;19959;-73
2021/09/07 08:34:45;;;;;;;;;;;;;;;24.27;100.00;101682.69;5073783;28;19928;-73
2021/09/07 08:37:11;;;;;;;;;;;;;;;23.94;100.00;101681.16;5073820;28;20023;-73
2021/09/07 08:39:38;;;;;;;;;;;;;;;24.18;100.00;101677.22;5073568;28;20320;-74
2021/09/07 08:42:10;;;;;;;;;;;;;;;24.29;100.00;101675.03;5074019;28;19959;-73
2021/09/07 08:44:36;;;;;;;;;;;;;;;24.70;100.00;101671.72;5073333;28;19968;-73
2021/09/07 08:47:03;;;;;;;;;;;;;;;24.04;100.00;101680.88;5073633;28;19959;-73
2021/09/07 08:49:29;;;;;;;;;;;;;;;23.87;100.00;101675.47;5073915;28;19968;-73
2021/09/07 08:51:57;;;;;;;;;;;;;;;24.22;100.00;101673.00;5068649;28;19986;-73
2021/09/07 08:54:23;;;;;;;;;;;;;;;24.01;100.00;101676.59;5073750;28;19962;-73
2021/09/07 08:56:49;;;;;;;;;;;;;;;24.29;100.00;101684.22;5065354;28;19929;-73
2021/09/07 08:59:16;;;;;;;;;;;;;;;24.86;100.00;101679.81;5053347;28;19932;-73
2021/09/07 09:01:47;;;;;;;;;;;;;;;24.73;100.00;101680.53;5062369;28;20402;-74
2021/09/07 09:04:27;;;;;;;;;;;;;;;25.02;100.00;101677.84;5068028;28;21683;-73
2021/09/07 09:06:53;;;;;;;;;;;;;;;24.28;99.08;101674.19;5063123;28;19924;-74
2021/09/07 09:09:21;;;;;;;;;;;;;;;24.26;100.00;101678.19;5066040;28;20420;-74
2021/09/07 09:11:49;;;;;;;;;;;;;;;24.60;98.77;101677.56;5070045;28;20299;-74
2021/09/07 09:14:30;;;;;;;;;;;;;;;25.02;100.00;101694.50;5068776;28;19925;-74
2021/09/07 09:16:56;;;;;;;;;;;;;;;25.76;100.00;101692.41;5061634;28;20023;-74
2021/09/07 09:19:22;;;;;;;;;;;;;;;25.36;98.62;101691.03;5071467;28;20036;-74
2021/09/07 09:21:49;;;;;;;;;;;;;;;24.86;99.83;101684.50;5054072;28;19970;-74
2021/09/07 09:24:16;;;;;;;;;;;;;;;24.51;100.00;101693.47;5069733;28;19975;-74
2021/09/07 09:26:55;;;;;;;;;;;;;;;24.42;100.00;101694.63;5073117;28;19924;-73
2021/09/07 09:29:21;;;;;;;;;;;;;;;23.90;100.00;101691.78;5054265;28;19924;-73
2021/09/07 09:31:52;;;;;;;;;;;;;;;24.14;100.00;101697.22;5055374;28;20359;-74
2021/09/07 09:34:18;;;;;;;;;;;;;;;24.87;100.00;101703.75;5061927;28;19963;-74
2021/09/07 09:36:47;;;;;;;;;;;;;;;25.26;100.00;101697.97;5072307;28;19979;-74
2021/09/07 09:39:33;;;;;;;;;;;;;;;25.69;93.64;101695.16;5057322;28;19964;-74
2021/09/07 09:42:01;;;;;;;;;;;;;;;26.01;96.37;101692.81;5052417;28;20427;-74
2021/09/07 09:44:28;;;;;;;;;;;;;;;26.43;91.68;101690.94;5068783;28;20285;-73
2021/09/07 09:46:55;;;;;;;;;;;;;;;26.83;87.38;101693.91;5072126;28;20209;-74
2021/09/07 09:49:21;;;;;;;;;;;;;;;26.92;82.56;101693.72;5057303;28;19968;-73
2021/09/07 09:51:49;;;;;;;;;;;;;;;26.15;83.32;101686.31;5052688;28;19925;-74
2021/09/07 09:54:16;;;;;;;;;;;;;;;26.43;88.00;101690.06;5061236;28;19928;-74
2021/09/07 09:56:42;;;;;;;;;;;;;;;26.53;84.82;101696.13;5065937;28;19928;-64
2021/09/07 09:59:10;;;;;;;;;;;;;;;26.67;87.97;101683.09;5052381;28;19924;-64
2021/09/07 10:01:38;;;;;;;;;;;;;;;26.04;85.75;101689.66;5053740;28;20458;-64
2021/09/07 10:04:04;;;;;;;;;;;;;;;25.93;92.42;101687.41;5068038;28;20381;-64
2021/09/07 10:06:31;;;;;;;;;;;;;;;26.10;90.60;101686.06;5062340;28;20380;-65
2021/09/07 10:08:58;;;;;;;;;;;;;;;26.53;92.12;101674.69;5052366;28;19975;-65
2021/09/07 10:11:27;;;;;;;;;;;;;;;27.20;95.33;101686.03;5059589;28;19955;-64
2021/09/07 10:13:56;;;;;;;;;;;;;;;26.73;92.01;101685.09;5071606;28;19925;-64
2021/09/07 10:16:29;;;;;;;;;;;;;;;24.90;99.82;101689.47;5050423;28;19924;-65
2021/09/07 10:18:58;;;;;;;;;;;;;;;24.24;100.00;101676.47;5051654;28;20384;-64
2021/09/07 10:24:43;;;;;;;;;;;;;;;25.87;96.99;101672.41;5034477;28;19925;-64
2021/09/07 10:27:09;;;;;;;;;;;;;;;26.37;94.01;101672.28;5053816;28;19967;-64
2021/09/07 10:29:40;;;;;;;;;;;;;;;26.06;100.00;101674.47;5067917;28;19932;-64
2021/09/07 10:35:12;;;;;;;;;;;;;;;25.68;100.00;101673.97;5109381;27;20016;-65
2021/09/07 10:37:57;;;;;;;;;;;;;;;25.62;96.51;101658.97;5093885;28;19930;-65
2021/09/07 10:40:44;;;;;;;;;;;;;;;24.95;100.00;101666.66;5088248;28;19924;-69
2021/09/07 10:43:10;;;;;;;;;;;;;;;25.14;100.00;101678.19;5085209;28;19935;-69
2021/09/07 10:45:36;;;;;;;;;;;;;;;24.66;100.00;101674.03;5087661;28;19995;-69
2021/09/07 10:48:18;;;;;;;;;;;;;;;24.18;100.00;101670.84;5088343;28;19987;-69
2021/09/07 10:51:02;;;;;;;;;;;;;;;23.74;100.00;101678.03;5088038;28;20039;-69
2021/09/07 10:53:29;;;;;;;;;;;;;;;23.60;100.00;101676.09;5088756;28;20022;-69
2021/09/07 10:56:16;;;;;;;;;;;;;;;23.50;100.00;101674.44;5088310;28;19955;-69
2021/09/07 10:58:42;;;;;;;;;;;;;;;24.37;100.00;101667.47;5088425;28;20398;-69
2021/09/07 11:01:24;;;;;;;;;;;;;;;25.06;100.00;101668.06;5088183;28;19964;-69
2021/09/07 11:04:05;;;;;;;;;;;;;;;25.55;100.00;101669.19;5087302;28;20019;-69
2021/09/07 11:06:41;;;;;;;;;;;;;;;25.13;100.00;101668.13;5087871;28;20027;-69
2021/09/07 11:09:22;;;;;;;;;;;;;;;24.09;100.00;101675.59;5088054;28;20295;-69
2021/09/07 11:11:48;;;;;;;;;;;;;;;23.34;100.00;101675.50;5087868;28;20487;-69
2021/09/07 11:14:16;;;;;;;;;;;;;;;22.66;100.00;101682.69;5087928;28;19956;-69
2021/09/07 11:16:50;;;;;;;;;;;;;;;22.34;100.00;101681.75;5088098;28;20041;-69
2021/09/07 11:19:17;;;;;;;;;;;;;;;23.03;100.00;101673.59;5087906;28;20416;-69
2021/09/07 11:21:44;;;;;;;;;;;;;;;23.97;100.00;101668.81;5088064;28;19959;-69
2021/09/07 11:24:18;;;;;;;;;;;;;;;24.99;100.00;101667.16;5086466;28;20615;-69
2021/09/07 11:26:45;;;;;;;;;;;;;;;25.07;100.00;101675.34;5085782;28;20386;-69
2021/09/07 11:29:12;;;;;;;;;;;;;;;24.00;100.00;101674.84;5085824;28;19928;-69
2021/09/07 11:31:38;;;;;;;;;;;;;;;23.28;100.00;101684.53;5086044;28;20640;-69
2021/09/07 11:34:11;;;;;;;;;;;;;;;23.92;100.00;101682.38;5099326;28;19967;-69
2021/09/07 11:36:37;;;;;;;;;;;;;;;24.64;100.00;101680.84;5106047;28;19993;-69
2021/09/07 11:39:05;;;;;;;;;;;;;;;25.21;100.00;101682.75;5088314;28;19932;-69
2021/09/07 11:41:31;;;;;;;;;;;;;;;25.67;100.00;101672.25;5107871;28;20353;-69
2021/09/07 11:43:58;;;;;;;;;;;;;;;25.30;91.07;101679.84;5107681;28;20068;-69
2021/09/07 11:46:26;;;;;;;;;;;;;;;24.48;95.74;101681.88;5093818;28;19931;-69
2021/09/07 11:48:54;;;;;;;;;;;;;;;23.78;100.00;101679.38;5093022;28;20007;-69
2021/09/07 11:51:26;;;;;;;;;;;;;;;23.71;100.00;101675.66;5084076;28;19924;-69
2021/09/07 11:53:53;;;;;;;;;;;;;;;24.60;100.00;101674.81;5093707;28;19968;-69
2021/09/07 11:56:22;;;;;;;;;;;;;;;25.42;94.04;101667.16;5093384;28;20037;-70
2021/09/07 11:58:49;;;;;;;;;;;;;;;26.09;83.35;101667.63;5093630;28;19981;-69
2021/09/07 12:01:16;;;;;;;;;;;;;;;26.26;77.48;101673.72;5093227;28;20007;-69
2021/09/07 12:03:47;;;;;;;;;;;;;;;26.27;78.95;101667.09;5093085;28;19968;-64
2021/09/07 12:06:15;;;;;;;;;;;;;;;26.59;76.20;101672.16;5086263;28;20330;-64
2021/09/07 12:08:42;;;;;;;;;;;;;;;26.66;77.34;101673.03;5093754;28;19977;-65
2021/09/07 12:11:10;;;;;;;;;;;;;;;26.37;66.69;101673.13;5093831;28;19928;-65
2021/09/07 12:13:38;;;;;;;;;;;;;;;26.63;79.51;101677.09;5093595;28;19927;-65
2021/09/07 12:16:05;;;;;;;;;;;;;;;27.21;71.13;101671.03;5075749;28;19970;-65
2021/09/07 12:18:33;;;;;;;;;;;;;;;27.32;66.06;101665.91;5091935;28;19993;-65
2021/09/07 12:21:10;;;;;;;;;;;;;;;27.00;63.19;101665.66;5088787;28;19935;-66
2021/09/07 12:23:37;;;;;;;;;;;;;;;27.04;63.16;101669.72;5091591;28;19928;-75
2021/09/07 12:26:03;;;;;;;;;;;;;;;26.78;66.32;101656.59;5093242;28;19935;-69
2021/09/07 12:28:30;;;;;;;;;;;;;;;27.10;62.65;101666.09;5090645;28;20136;-69
2021/09/07 12:31:10;;;;;;;;;;;;;;;26.83;63.75;101652.13;5072855;28;20358;-69
2021/09/07 12:33:41;;;;;;;;;;;;;;;27.14;69.91;101659.03;5085136;28;19931;-69
2021/09/07 12:36:08;;;;;;;;;;;;;;;27.17;63.16;101653.03;5092444;28;20337;-69